Time;durP1;ratioP1;P1;durP2;ratioP2;P2;SDS_P1;SDS_P2;PMS_P1;PMS_P2;Temp;Humidity;BMP_temperature;BMP_pressure;BME280_temperature;BME280_humidity;BME280_pressure;Samples;Min_cycle;Max_cycle;Signal;HPM_P1;HPM_P2
2023/08/02 00:00:06;;;;;;;9.52;4.62;;;;;;;19.54;72.10;98269.38;4346370;33;33465;-88
2023/08/02 00:02:37;;;;;;;9.75;4.87;;;;;;;19.43;72.66;98263.66;4331288;33;33481;-86
2023/08/02 00:05:05;;;;;;;8.90;4.57;;;;;;;19.51;72.02;98280.03;4335510;33;34272;-89
2023/08/02 00:07:33;;;;;;;7.62;4.75;;;;;;;19.14;73.87;98276.13;4345908;33;34641;-90
2023/08/02 00:10:03;;;;;;;9.07;4.95;;;;;;;19.51;72.14;98287.03;4346145;33;34248;-86
2023/08/02 00:12:31;;;;;;;8.80;5.47;;;;;;;19.54;71.76;98284.28;4331944;33;34523;-86
2023/08/02 00:14:58;;;;;;;14.38;5.87;;;;;;;19.62;71.50;98292.78;4331379;33;34200;-90
2023/08/02 00:17:26;;;;;;;9.75;5.75;;;;;;;19.49;71.93;98312.53;4331222;33;34780;-90
2023/08/02 00:19:53;;;;;;;9.95;5.30;;;;;;;19.47;72.07;98311.72;4318063;33;33243;-90
2023/08/02 00:22:21;;;;;;;9.05;5.72;;;;;;;19.50;71.84;98320.34;4331165;33;33685;-87
2023/08/02 00:24:49;;;;;;;8.00;5.50;;;;;;;19.55;71.42;98310.56;4332810;33;34850;-90
2023/08/02 00:27:17;;;;;;;11.80;5.40;;;;;;;19.45;72.12;98320.53;4345756;33;34297;-89
2023/08/02 00:29:44;;;;;;;10.45;5.12;;;;;;;19.39;71.70;98325.16;4334093;33;33883;-88
2023/08/02 00:32:11;;;;;;;9.93;4.95;;;;;;;19.34;71.75;98324.47;4331646;33;33695;-88
2023/08/02 00:34:39;;;;;;;8.85;5.40;;;;;;;19.56;70.82;98319.28;4330869;33;33871;-87
2023/08/02 00:37:07;;;;;;;7.60;4.95;;;;;;;19.43;71.57;98313.59;4345905;33;34699;-87
2023/08/02 00:39:34;;;;;;;9.30;5.12;;;;;;;19.68;70.71;98313.59;4346128;33;33370;-87
2023/08/02 00:42:02;;;;;;;9.30;5.15;;;;;;;19.66;70.66;98320.66;4344446;33;34380;-88
2023/08/02 00:44:30;;;;;;;9.65;5.07;;;;;;;19.29;72.35;98310.66;4330963;33;34286;-89
2023/08/02 00:46:58;;;;;;;8.98;5.07;;;;;;;19.31;72.03;98304.41;4330545;33;34065;-88
2023/08/02 00:49:26;;;;;;;9.18;4.78;;;;;;;19.57;71.11;98311.34;4334145;33;32785;-89
2023/08/02 00:51:59;;;;;;;9.80;5.25;;;;;;;19.30;71.96;98302.69;4305896;33;33884;-87
2023/08/02 00:54:27;;;;;;;8.63;5.10;;;;;;;19.22;71.94;98298.63;4322311;33;35193;-87
2023/08/02 00:56:54;;;;;;;8.65;4.75;;;;;;;18.84;74.05;98299.06;4332649;33;34166;-87
2023/08/02 00:59:22;;;;;;;8.48;5.55;;;;;;;18.75;73.78;98307.25;4330713;33;33716;-86
2023/08/02 01:01:49;;;;;;;10.25;5.55;;;;;;;18.86;73.40;98313.00;4331284;33;34083;-89
2023/08/02 01:04:17;;;;;;;13.10;4.90;;;;;;;19.05;72.81;98322.88;4330276;33;33946;-88
2023/08/02 01:06:49;;;;;;;8.75;5.22;;;;;;;19.29;72.24;98323.78;4341447;33;33220;-88
2023/08/02 01:09:26;;;;;;;7.93;5.18;;;;;;;18.79;74.61;98326.38;4332375;33;33302;-87
2023/08/02 01:11:59;;;;;;;8.65;6.03;;;;;;;19.13;73.12;98323.44;4341397;32;34379;-88
2023/08/02 01:14:28;;;;;;;14.57;7.15;;;;;;;18.71;74.93;98329.28;4317701;33;33827;-86
2023/08/02 01:17:03;;;;;;;8.70;6.47;;;;;;;18.37;76.23;98327.75;4312129;33;33860;-87
2023/08/02 01:19:31;;;;;;;9.55;6.70;;;;;;;18.28;77.11;98335.88;4310884;33;33518;-89
2023/08/02 01:21:58;;;;;;;10.48;6.62;;;;;;;18.38;76.27;98332.06;4320393;33;34056;-87
2023/08/02 01:24:33;;;;;;;8.95;7.12;;;;;;;18.64;75.01;98319.88;4331108;33;34929;-87
2023/08/02 01:27:23;;;;;;;11.82;7.03;;;;;;;18.52;75.82;98318.47;4315953;33;34047;-87
2023/08/02 01:29:52;;;;;;;12.35;6.70;;;;;;;18.45;76.58;98323.09;4315994;33;32936;-88
2023/08/02 01:32:23;;;;;;;11.68;7.60;;;;;;;18.10;76.85;98328.59;4316976;33;33977;-88
2023/08/02 01:34:51;;;;;;;9.65;6.53;;;;;;;17.85;78.75;98331.13;4342774;33;33694;-87
2023/08/02 01:37:20;;;;;;;11.25;7.25;;;;;;;18.45;76.07;98323.09;4330704;33;33798;-87
2023/08/02 01:39:47;;;;;;;14.93;6.50;;;;;;;18.53;75.75;98329.88;4317246;33;32576;-88
2023/08/02 01:42:16;;;;;;;7.90;5.80;;;;;;;18.34;76.31;98335.72;4344823;33;34740;-88
2023/08/02 01:44:44;;;;;;;9.52;6.32;;;;;;;18.62;74.56;98324.31;4330601;33;34256;-89
2023/08/02 01:47:11;;;;;;;9.93;5.90;;;;;;;18.42;75.82;98338.94;4332037;33;34053;-88
2023/08/02 01:49:39;;;;;;;9.25;5.90;;;;;;;18.69;74.08;98325.81;4332186;33;33397;-87
2023/08/02 01:52:07;;;;;;;9.52;5.90;;;;;;;18.57;74.41;98336.72;4332886;33;34907;-87
2023/08/02 01:54:34;;;;;;;8.13;5.60;;;;;;;18.72;73.77;98336.25;4337937;33;33794;-87
2023/08/02 01:57:02;;;;;;;10.90;5.35;;;;;;;18.59;74.18;98334.91;4324736;33;33662;-87
2023/08/02 01:59:30;;;;;;;8.30;5.90;;;;;;;18.51;74.30;98332.53;4317524;33;33110;-88
2023/08/02 02:01:57;;;;;;;10.05;6.10;;;;;;;18.61;74.21;98343.59;4318230;33;34909;-88
2023/08/02 02:04:25;;;;;;;7.53;5.07;;;;;;;18.65;73.99;98340.81;4323969;33;34618;-87
2023/08/02 02:07:12;;;;;;;11.23;6.35;;;;;;;18.80;73.41;98336.84;4315935;33;34512;-87
2023/08/02 02:09:40;;;;;;;10.73;5.55;;;;;;;18.97;72.30;98336.25;4317254;33;33788;-86
2023/08/02 02:12:08;;;;;;;10.20;5.28;;;;;;;18.84;72.80;98343.72;4328763;33;33996;-88
2023/08/02 02:14:35;;;;;;;11.68;5.32;;;;;;;18.74;73.07;98344.06;4324782;33;35100;-89
2023/08/02 02:17:03;;;;;;;10.48;5.45;;;;;;;18.81;72.64;98341.19;4334008;33;33505;-88
2023/08/02 02:19:31;;;;;;;9.95;5.68;;;;;;;18.87;72.06;98334.88;4325720;33;33125;-86
2023/08/02 02:21:58;;;;;;;8.02;5.55;;;;;;;18.92;72.12;98348.72;4340570;32;33864;-87
2023/08/02 02:24:27;;;;;;;8.63;5.05;;;;;;;18.97;71.74;98352.03;4335097;33;34115;-90
2023/08/02 02:26:56;;;;;;;9.93;5.22;;;;;;;19.05;71.56;98350.00;4332326;33;34221;-87
2023/08/02 02:29:24;;;;;;;9.38;5.35;;;;;;;19.12;70.67;98356.75;4331838;33;33489;-87
2023/08/02 02:31:51;;;;;;;9.13;4.62;;;;;;;19.05;70.94;98352.63;4330886;33;34538;-87
2023/08/02 02:34:18;;;;;;;7.37;4.72;;;;;;;19.28;70.00;98348.31;4339348;33;34844;-87
2023/08/02 02:36:46;;;;;;;10.70;5.35;;;;;;;19.22;69.67;98354.69;4327057;33;33637;-87
2023/08/02 02:39:14;;;;;;;10.23;5.12;;;;;;;19.03;70.34;98358.84;4325443;33;33008;-87
2023/08/02 02:41:41;;;;;;;8.10;4.70;;;;;;;19.32;69.34;98358.69;4324354;33;33986;-87
2023/08/02 02:44:09;;;;;;;10.07;4.80;;;;;;;19.28;68.60;98362.34;4340784;33;33825;-88
2023/08/02 02:46:40;;;;;;;10.35;4.60;;;;;;;19.32;67.95;98369.22;4319730;33;33275;-87
2023/08/02 02:49:07;;;;;;;8.13;5.00;;;;;;;19.36;67.41;98365.56;4330972;33;33745;-86
2023/08/02 02:51:35;;;;;;;7.10;4.40;;;;;;;19.37;67.23;98371.66;4325098;33;33588;-87
2023/08/02 02:54:03;;;;;;;7.35;4.53;;;;;;;19.28;67.61;98378.13;4329643;33;33887;-87
2023/08/02 02:56:30;;;;;;;7.78;5.07;;;;;;;19.09;67.80;98382.28;4330324;33;33801;-87
2023/08/02 02:58:58;;;;;;;20.40;5.30;;;;;;;18.77;69.25;98378.97;4317954;33;33039;-87
2023/08/02 03:01:25;;;;;;;8.75;4.78;;;;;;;18.95;68.71;98383.59;4309638;33;34237;-86
2023/08/02 03:03:53;;;;;;;10.18;4.35;;;;;;;19.08;68.54;98370.06;4330184;33;34168;-86
2023/08/02 03:06:22;;;;;;;9.02;3.92;;;;;;;19.10;68.50;98378.75;4337674;33;33050;-87
2023/08/02 03:08:50;;;;;;;8.65;3.92;;;;;;;19.03;68.48;98393.00;4327418;33;33327;-87
2023/08/02 03:11:17;;;;;;;6.72;3.78;;;;;;;18.92;69.35;98388.09;4329424;33;34335;-87
2023/08/02 03:13:45;;;;;;;8.30;3.67;;;;;;;18.96;69.44;98389.72;4336244;33;34149;-88
2023/08/02 03:16:12;;;;;;;6.68;3.58;;;;;;;18.82;70.09;98400.66;4331730;33;34047;-87
2023/08/02 03:18:40;;;;;;;8.00;3.22;;;;;;;18.67;70.83;98402.00;4319740;33;32927;-87
2023/08/02 03:21:08;;;;;;;6.85;3.35;;;;;;;19.00;69.73;98398.34;4328129;33;33499;-89
2023/08/02 03:23:35;;;;;;;7.70;3.67;;;;;;;18.94;69.98;98415.16;4317819;33;34196;-89
2023/08/02 03:26:04;;;;;;;7.28;3.47;;;;;;;18.99;69.91;98407.16;4326426;33;33539;-87
2023/08/02 03:28:31;;;;;;;6.78;3.47;;;;;;;19.01;69.56;98410.56;4316232;33;33135;-87
2023/08/02 03:30:59;;;;;;;6.45;3.25;;;;;;;18.87;69.92;98414.53;4331857;33;34031;-87
2023/08/02 03:33:26;;;;;;;6.20;2.95;;;;;;;18.70;70.90;98416.78;4346445;33;35089;-87
2023/08/02 03:35:54;;;;;;;7.55;3.28;;;;;;;18.89;69.86;98417.94;4345916;33;34689;-88
2023/08/02 03:38:23;;;;;;;6.70;3.42;;;;;;;18.70;71.06;98417.69;4324559;33;34658;-86
2023/08/02 03:40:50;;;;;;;5.07;2.95;;;;;;;18.78;70.67;98417.44;4331849;33;33070;-87
2023/08/02 03:43:18;;;;;;;6.47;3.17;;;;;;;18.97;69.53;98412.44;4333346;33;34529;-89
2023/08/02 03:45:46;;;;;;;6.60;3.12;;;;;;;18.80;70.30;98420.88;4331030;33;35300;-87
2023/08/02 03:48:14;;;;;;;6.07;2.67;;;;;;;18.65;70.95;98427.44;4323990;33;34163;-87
2023/08/02 03:50:43;;;;;;;5.90;3.20;;;;;;;18.75;70.55;98422.78;4324533;33;33640;-87
2023/08/02 03:53:10;;;;;;;6.22;2.85;;;;;;;18.85;70.92;98418.09;4317369;33;34049;-87
2023/08/02 03:55:38;;;;;;;8.50;2.90;;;;;;;18.97;70.39;98420.31;4325467;33;34696;-87
2023/08/02 03:58:05;;;;;;;5.57;2.87;;;;;;;18.75;70.83;98416.66;4316287;33;33192;-87
2023/08/02 04:00:33;;;;;;;5.85;3.10;;;;;;;18.84;70.61;98413.78;4327886;33;33921;-87
2023/08/02 04:03:00;;;;;;;8.38;3.37;;;;;;;18.85;70.70;98413.72;4345971;33;33838;-88
2023/08/02 04:05:28;;;;;;;5.95;2.75;;;;;;;18.70;70.97;98422.03;4333799;33;33730;-87
2023/08/02 04:07:55;;;;;;;5.90;2.90;;;;;;;18.96;70.27;98426.50;4319759;33;33559;-87
2023/08/02 04:10:24;;;;;;;7.90;2.80;;;;;;;19.09;69.98;98419.03;4325539;33;33520;-87
2023/08/02 04:12:52;;;;;;;6.97;2.87;;;;;;;19.18;69.50;98418.75;4316603;33;33685;-87
2023/08/02 04:15:19;;;;;;;8.23;2.95;;;;;;;19.14;69.79;98423.25;4304783;33;33237;-86
2023/08/02 04:17:49;;;;;;;7.57;2.83;;;;;;;19.30;69.38;98423.59;4331162;33;33525;-86
2023/08/02 04:20:16;;;;;;;6.03;2.62;;;;;;;19.24;69.98;98421.16;4330028;33;33998;-87
2023/08/02 04:22:44;;;;;;;6.40;3.05;;;;;;;19.23;70.59;98416.81;4342645;33;34927;-86
2023/08/02 04:25:11;;;;;;;6.75;2.92;;;;;;;19.59;69.98;98413.84;4338153;33;34039;-86
2023/08/02 04:27:39;;;;;;;5.37;2.47;;;;;;;19.62;69.41;98425.13;4327259;33;33303;-87
2023/08/02 04:30:07;;;;;;;5.85;2.58;;;;;;;19.22;70.78;98427.41;4324865;33;34196;-87
2023/08/02 04:32:35;;;;;;;5.15;2.95;;;;;;;19.42;70.26;98430.19;4338593;33;33313;-87
2023/08/02 04:35:03;;;;;;;5.32;2.78;;;;;;;19.45;69.98;98432.72;4334491;33;34430;-88
2023/08/02 04:37:31;;;;;;;5.53;2.70;;;;;;;19.66;69.80;98432.00;4330691;33;33685;-88
2023/08/02 04:39:59;;;;;;;6.72;2.60;;;;;;;20.20;68.02;98426.53;4325449;33;34488;-88
2023/08/02 04:42:26;;;;;;;5.75;2.50;;;;;;;20.26;67.46;98423.66;4335253;33;34974;-88
2023/08/02 04:44:54;;;;;;;4.12;2.30;;;;;;;20.79;65.32;98420.72;4337807;33;33395;-87
2023/08/02 04:47:22;;;;;;;5.22;2.62;;;;;;;21.15;63.45;98413.06;4331330;33;33291;-87
2023/08/02 04:49:49;;;;;;;5.97;2.60;;;;;;;21.28;63.24;98414.25;4326798;33;34250;-87
2023/08/02 04:52:17;;;;;;;5.00;2.53;;;;;;;21.72;61.54;98408.00;4325884;33;34087;-86
2023/08/02 04:54:45;;;;;;;5.87;2.42;;;;;;;21.98;61.25;98422.69;4319761;33;34342;-88
2023/08/02 04:57:12;;;;;;;5.12;2.00;;;;;;;22.47;61.18;98417.78;4330934;33;34569;-88
2023/08/02 04:59:40;;;;;;;5.65;2.70;;;;;;;21.93;61.63;98414.94;4327299;33;33870;-88
2023/08/02 05:02:10;;;;;;;11.52;3.00;;;;;;;21.91;61.91;98419.44;4317620;33;33804;-88
2023/08/02 05:04:37;;;;;;;6.25;2.75;;;;;;;22.62;59.87;98424.13;4326780;33;33639;-87
2023/08/02 05:07:05;;;;;;;6.00;2.72;;;;;;;22.91;58.08;98420.06;4316118;33;33355;-87
2023/08/02 05:09:32;;;;;;;4.85;2.25;;;;;;;22.71;59.18;98431.59;4333219;33;34094;-87
2023/08/02 05:12:00;;;;;;;5.95;2.95;;;;;;;23.20;58.08;98410.72;4316850;33;34165;-87
2023/08/02 05:14:28;;;;;;;5.10;2.40;;;;;;;23.09;58.07;98427.09;4326482;33;34239;-87
2023/08/02 05:16:56;;;;;;;4.07;2.20;;;;;;;23.17;57.79;98424.94;4325285;33;34169;-87
2023/08/02 05:19:23;;;;;;;4.50;2.05;;;;;;;22.81;59.38;98423.16;4320650;33;35090;-87
2023/08/02 05:21:51;;;;;;;5.30;2.20;;;;;;;23.34;56.20;98421.44;4315894;33;34173;-87
2023/08/02 05:24:19;;;;;;;6.62;2.67;;;;;;;23.39;56.88;98431.78;4325667;33;34207;-88
2023/08/02 05:26:46;;;;;;;5.32;2.75;;;;;;;23.25;55.67;98417.47;4330657;33;33211;-87
2023/08/02 05:29:14;;;;;;;4.35;2.08;;;;;;;22.89;58.00;98430.72;4331722;33;33981;-87
2023/08/02 05:31:41;;;;;;;5.65;1.92;;;;;;;22.56;58.83;98433.19;4327833;33;32175;-88
2023/08/02 05:34:09;;;;;;;4.60;2.00;;;;;;;22.48;59.31;98435.34;4320818;33;34818;-87
2023/08/02 05:36:37;;;;;;;6.43;2.30;;;;;;;22.21;59.84;98443.63;4315439;33;34002;-87
2023/08/02 05:39:04;;;;;;;6.50;2.45;;;;;;;22.19;59.69;98455.19;4323646;33;34445;-86
2023/08/02 05:41:32;;;;;;;4.07;2.17;;;;;;;22.78;57.70;98447.09;4334793;33;34116;-87
2023/08/02 05:44:00;;;;;;;4.87;2.37;;;;;;;23.20;57.68;98437.16;4330269;33;33909;-87
2023/08/02 05:46:32;;;;;;;5.12;2.00;;;;;;;23.25;56.70;98437.75;4326125;33;33057;-88
2023/08/02 05:48:59;;;;;;;4.78;1.98;;;;;;;23.72;56.39;98443.31;4316151;33;34084;-87
2023/08/02 05:51:27;;;;;;;4.62;2.40;;;;;;;23.41;56.62;98444.00;4315900;33;33939;-87
2023/08/02 05:53:54;;;;;;;4.95;2.33;;;;;;;23.52;56.93;98443.44;4315358;33;35174;-88
2023/08/02 05:56:22;;;;;;;5.53;2.62;;;;;;;23.14;57.12;98454.16;4332674;33;32982;-88
2023/08/02 05:58:50;;;;;;;5.45;2.40;;;;;;;23.49;56.83;98446.25;4330753;33;33730;-89
2023/08/02 06:01:18;;;;;;;5.15;2.60;;;;;;;;;;4307417;33;34915;-88
2023/08/02 06:03:46;;;;;;;11.27;2.58;;;;;;;23.48;57.68;98458.59;4315386;33;33983;-88
2023/08/02 06:06:13;;;;;;;6.65;2.25;;;;;;;23.73;57.03;98458.25;4327006;33;33712;-88
2023/08/02 06:08:41;;;;;;;4.90;2.22;;;;;;;23.74;56.54;98467.88;4329961;33;33355;-87
2023/08/02 06:11:09;;;;;;;8.07;2.53;;;;;;;22.72;58.76;98476.44;4329685;33;34104;-88
2023/08/02 06:13:36;;;;;;;6.32;2.45;;;;;;;22.72;57.88;98471.16;4329849;33;34937;-88
2023/08/02 06:16:04;;;;;;;5.43;2.67;;;;;;;23.05;57.98;98475.78;4322581;33;33960;-88
2023/08/02 06:18:32;;;;;;;6.35;3.05;;;;;;;22.72;58.78;98480.88;4328827;33;34716;-88
2023/08/02 06:20:59;;;;;;;5.45;2.37;;;;;;;22.24;59.64;98484.87;4328332;33;33916;-90
2023/08/02 06:23:27;;;;;;;8.70;2.80;;;;;;;22.79;59.50;98485.78;4303129;33;33803;-89
2023/08/02 06:25:54;;;;;;;8.13;2.90;;;;;;;22.83;58.50;98474.13;4330052;33;33166;-89
2023/08/02 06:28:22;;;;;;;6.57;2.70;;;;;;;23.09;58.09;98484.44;4321321;33;33407;-90
2023/08/02 06:30:49;;;;;;;7.97;2.67;;;;;;;22.99;57.28;98479.56;4317292;33;34054;-90
2023/08/02 06:33:17;;;;;;;5.90;3.03;;;;;;;22.86;59.42;98490.78;4316660;33;34129;-86
2023/08/02 06:35:45;;;;;;;7.18;2.83;;;;;;;22.71;59.19;98490.59;4322088;33;33726;-88
2023/08/02 06:38:12;;;;;;;4.90;2.67;;;;;;;22.17;61.13;98486.94;4328509;33;34854;-86
2023/08/02 06:40:40;;;;;;;5.87;2.80;;;;;;;22.57;60.48;98490.38;4321083;33;33890;-88
2023/08/02 06:43:07;;;;;;;6.10;2.47;;;;;;;23.11;59.03;98501.94;4318186;33;34862;-90
2023/08/02 06:45:35;;;;;;;5.55;3.00;;;;;;;22.89;59.19;98506.50;4335529;33;33807;-89
2023/08/02 06:48:05;;;;;;;5.40;2.70;;;;;;;22.85;59.57;98497.88;4346679;33;34123;-89
2023/08/02 06:50:36;;;;;;;6.25;2.37;;;;;;;22.53;60.68;98499.37;4331886;33;34381;-88
2023/08/02 06:53:05;;;;;;;6.60;2.80;;;;;;;22.71;60.59;98497.66;4327810;33;33132;-89
2023/08/02 06:55:33;;;;;;;5.10;2.70;;;;;;;23.12;58.58;98500.16;4327971;33;33042;-89
2023/08/02 06:58:01;;;;;;;6.28;3.10;;;;;;;23.73;58.15;98486.50;4318578;33;33786;-88
2023/08/02 07:00:29;;;;;;;4.62;2.10;;;;;;;23.69;56.90;98484.97;4316786;33;34149;-91
2023/08/02 07:02:59;;;;;;;4.60;2.40;;;;;;;23.33;57.62;98503.50;4303207;33;34070;-90
2023/08/02 07:05:28;;;;;;;5.32;2.47;;;;;;;23.56;56.78;98500.56;4305330;33;33788;-86
2023/08/02 07:07:57;;;;;;;4.82;2.28;;;;;;;24.02;54.50;98500.88;4318048;33;34801;-86
2023/08/02 07:10:26;;;;;;;4.40;2.20;;;;;;;23.88;56.24;98503.38;4329278;33;34252;-89
2023/08/02 07:12:54;;;;;;;6.57;2.35;;;;;;;24.00;56.07;98506.25;4334196;33;34411;-86
2023/08/02 07:15:22;;;;;;;5.35;2.28;;;;;;;23.36;56.23;98513.94;4317672;33;34252;-86
2023/08/02 07:17:49;;;;;;;4.97;2.20;;;;;;;23.41;54.29;98507.50;4303724;33;34685;-84
2023/08/02 07:20:22;;;;;;;5.28;2.28;;;;;;;23.49;56.21;98493.88;4325508;33;35400;-88
2023/08/02 07:22:49;;;;;;;4.85;2.05;;;;;;;23.85;54.69;98500.91;4337360;33;33943;-88
2023/08/02 07:25:17;;;;;;;5.37;1.95;;;;;;;23.65;54.73;98494.81;4318711;33;33573;-86
2023/08/02 07:27:44;;;;;;;4.37;1.92;;;;;;;24.45;52.84;98488.88;4331753;33;33746;-89
2023/08/02 07:30:12;;;;;;;5.12;2.10;;;;;;;24.09;54.09;98491.66;4331770;33;33409;-94
2023/08/02 07:32:40;;;;;;;4.32;1.80;;;;;;;23.66;54.77;98496.53;4321869;33;33935;-89
2023/08/02 07:35:08;;;;;;;3.75;1.60;;;;;;;23.78;52.63;98490.63;4321256;33;33625;-88
2023/08/02 07:37:35;;;;;;;5.85;1.85;;;;;;;23.62;54.67;98494.09;4320017;33;34751;-91
2023/08/02 07:40:03;;;;;;;4.28;1.33;;;;;;;23.47;53.58;98499.25;4324992;33;35213;-87
2023/08/02 07:42:30;;;;;;;4.72;1.50;;;;;;;23.84;51.68;98489.47;4319450;33;33785;-94
2023/08/02 07:45:06;;;;;;;3.97;1.58;;;;;;;24.28;50.25;98491.53;4313005;33;33800;-92
2023/08/02 07:47:34;;;;;;;3.58;1.60;;;;;;;24.20;52.40;98488.44;4327660;33;34486;-88
2023/08/02 07:50:03;;;;;;;4.15;1.55;;;;;;;23.71;52.72;98489.22;4306836;33;34220;-89
2023/08/02 07:52:32;;;;;;;6.40;2.20;;;;;;;24.06;51.87;98489.19;4322885;33;33926;-90
2023/08/02 07:55:01;;;;;;;5.45;1.87;;;;;;;23.91;50.92;98495.28;4325841;33;34405;-90
2023/08/02 07:57:32;;;;;;;5.50;1.60;;;;;;;23.69;52.43;98501.69;4318570;33;33783;-92
2023/08/02 08:00:00;;;;;;;4.53;1.58;;;;;;;23.94;53.08;98497.75;4332368;33;34969;-85
2023/08/02 08:02:38;;;;;;;5.50;1.80;;;;;;;23.65;52.51;98493.97;4325252;33;33247;-93
2023/08/02 08:05:07;;;;;;;3.15;1.30;;;;;;;24.16;50.83;98485.09;4318839;33;33066;-89
2023/08/02 08:07:37;;;;;;;3.42;1.40;;;;;;;23.87;51.58;98489.31;4337263;33;33729;-88
2023/08/02 08:10:05;;;;;;;4.43;1.40;;;;;;;24.13;51.44;98484.41;4337196;33;33501;-85
2023/08/02 08:12:33;;;;;;;5.70;1.90;;;;;;;24.35;51.07;98481.47;4334041;33;34538;-86
2023/08/02 08:15:01;;;;;;;5.25;1.50;;;;;;;23.97;51.14;98485.22;4336569;33;34345;-86
2023/08/02 08:17:28;;;;;;;4.53;1.42;;;;;;;24.18;49.75;98488.53;4322134;33;33674;-87
2023/08/02 08:19:56;;;;;;;3.72;1.70;;;;;;;24.10;50.89;98481.94;4331123;33;34283;-93
2023/08/02 08:22:28;;;;;;;6.43;2.20;;;;;;;24.35;50.04;98489.41;4333138;33;34296;-89
2023/08/02 08:24:56;;;;;;;3.25;1.30;;;;;;;24.41;50.28;98484.66;4321644;33;34321;-86
2023/08/02 08:27:24;;;;;;;2.65;1.40;;;;;;;24.62;49.89;98481.78;4323913;33;33824;-87
2023/08/02 08:29:51;;;;;;;4.53;1.65;;;;;;;24.69;50.20;98484.00;4316788;33;34777;-87
2023/08/02 08:32:20;;;;;;;7.37;1.30;;;;;;;25.06;49.42;98497.84;4333796;33;34485;-83
2023/08/02 08:34:47;;;;;;;4.45;1.35;;;;;;;24.88;49.52;98482.97;4313109;33;33023;-89
2023/08/02 08:37:15;;;;;;;4.93;1.15;;;;;;;25.06;49.37;98492.53;4326207;33;34012;-89
2023/08/02 08:39:42;;;;;;;2.95;1.45;;;;;;;25.31;48.19;98488.53;4328927;33;34262;-86
2023/08/02 08:42:12;;;;;;;3.10;1.48;;;;;;;25.21;48.75;98496.16;4327690;33;33847;-88
2023/08/02 08:44:39;;;;;;;6.43;1.52;;;;;;;24.72;48.99;98491.78;4329744;33;33413;-87
2023/08/02 08:47:07;;;;;;;4.78;1.52;;;;;;;24.84;48.77;98495.53;4338600;33;33206;-88
2023/08/02 08:49:36;;;;;;;4.10;1.35;;;;;;;24.92;49.38;98503.06;4327489;33;35054;-88
2023/08/02 08:52:05;;;;;;;4.05;1.50;;;;;;;25.20;48.07;98503.25;4330224;33;34201;-87
2023/08/02 08:54:35;;;;;;;3.92;1.58;;;;;;;25.13;48.07;98509.84;4338795;33;33302;-91
2023/08/02 08:57:04;;;;;;;3.78;1.45;;;;;;;25.50;47.50;98509.53;4318379;33;33983;-87
2023/08/02 08:59:32;;;;;;;4.15;1.85;;;;;;;25.54;46.33;98503.09;4326134;33;34355;-85
2023/08/02 09:02:00;;;;;;;6.32;1.90;;;;;;;25.03;48.77;98500.66;4331781;33;33957;-88
2023/08/02 09:04:29;;;;;;;2.83;1.10;;;;;;;25.00;48.66;98500.81;4319164;33;34212;-86
2023/08/02 09:06:57;;;;;;;4.45;1.37;;;;;;;25.15;45.89;98493.84;4313880;33;33795;-91
2023/08/02 09:09:24;;;;;;;4.10;1.60;;;;;;;25.38;47.28;98496.03;4334027;33;33435;-88
2023/08/02 09:11:54;;;;;;;4.05;1.30;;;;;;;25.61;47.23;98485.84;4330274;33;33818;-88
2023/08/02 09:14:22;;;;;;;5.45;1.70;;;;;;;25.75;48.79;98490.34;4331091;33;33472;-89
2023/08/02 09:16:56;;;;;;;3.33;1.58;;;;;;;25.69;46.37;98481.81;4317480;33;34031;-88
2023/08/02 09:19:28;;;;;;;5.10;1.77;;;;;;;25.93;44.65;98484.78;4319074;33;33627;-89
2023/08/02 09:22:15;;;;;;;3.78;1.40;;;;;;;26.02;44.69;98486.03;4330638;33;33983;-88
2023/08/02 09:24:44;;;;;;;4.35;1.65;;;;;;;25.36;44.75;98497.06;4331085;33;33019;-89
2023/08/02 09:27:18;;;;;;;4.43;1.60;;;;;;;25.69;45.02;98484.44;4331205;33;34901;-89
2023/08/02 09:29:52;;;;;;;4.32;1.40;;;;;;;26.27;44.22;98479.22;4318536;33;34842;-89
2023/08/02 09:32:22;;;;;;;3.95;1.42;;;;;;;25.72;41.33;98486.06;4344137;33;34264;-89
2023/08/02 09:34:51;;;;;;;3.70;1.33;;;;;;;25.78;43.28;98487.50;4344130;33;33643;-90
2023/08/02 09:37:33;;;;;;;2.97;1.20;;;;;;;25.91;41.37;98485.81;4345183;33;34203;-89
2023/08/02 09:40:04;;;;;;;4.35;1.40;;;;;;;26.16;41.61;98479.88;4318668;33;33804;-88
2023/08/02 09:42:31;;;;;;;4.47;1.40;;;;;;;26.33;40.53;98486.78;4330319;33;34496;-89
2023/08/02 09:45:03;;;;;;;4.45;1.40;;;;;;;26.30;41.51;98481.69;4329995;33;33275;-90
2023/08/02 09:47:31;;;;;;;5.43;1.92;;;;;;;26.08;42.26;98483.00;4319097;33;33976;-87
2023/08/02 09:50:03;;;;;;;3.90;1.50;;;;;;;26.06;42.33;98484.87;4330257;33;33625;-88
2023/08/02 09:52:30;;;;;;;4.00;1.42;;;;;;;26.06;41.38;98487.53;4330180;33;33945;-88
2023/08/02 09:54:58;;;;;;;3.50;1.25;;;;;;;25.71;43.71;98492.31;4316765;33;33350;-90
2023/08/02 09:57:28;;;;;;;7.37;1.83;;;;;;;26.25;42.56;98487.25;4329875;33;34109;-87
2023/08/02 10:00:15;;;;;;;4.37;1.62;;;;;;;26.39;40.82;98491.72;4316710;33;35716;-88
2023/08/02 10:02:45;;;;;;;3.85;1.50;;;;;;;25.86;41.47;98493.22;4316809;33;34672;-86
2023/08/02 10:05:13;;;;;;;3.72;1.20;;;;;;;26.14;41.67;98487.97;4329873;33;34221;-88
2023/08/02 10:07:48;;;;;;;4.25;1.50;;;;;;;25.67;40.59;98491.63;4318671;33;33854;-88
2023/08/02 10:10:23;;;;;;;3.05;1.40;;;;;;;26.00;41.77;98495.91;4318339;33;35115;-89
2023/08/02 10:13:01;;;;;;;3.33;1.30;;;;;;;26.14;41.23;98487.97;4327544;33;34705;-90
2023/08/02 10:15:29;;;;;;;3.65;1.30;;;;;;;26.51;40.58;98490.97;4332300;33;34262;-91
2023/08/02 10:17:58;;;;;;;3.90;1.35;;;;;;;26.77;39.86;98486.66;4328904;33;33705;-90
2023/08/02 10:20:25;;;;;;;3.37;1.42;;;;;;;26.66;39.34;98492.66;4319928;33;35158;-89
2023/08/02 10:22:53;;;;;;;3.42;1.25;;;;;;;26.35;41.42;98484.91;4320845;33;34588;-85
2023/08/02 10:25:21;;;;;;;3.15;1.20;;;;;;;26.69;40.13;98478.34;4330389;33;33811;-88
2023/08/02 10:27:49;;;;;;;2.20;1.00;;;;;;;26.77;38.76;98475.19;4315411;33;34664;-85
2023/08/02 10:30:17;;;;;;;3.90;1.20;;;;;;;26.79;39.29;98483.94;4322987;33;34196;-83
2023/08/02 10:33:14;;;;;;;3.60;1.25;;;;;;;26.94;37.95;98474.97;4330732;33;33717;-84
2023/08/02 10:35:54;;;;;;;3.95;1.40;;;;;;;26.56;38.00;98470.31;4323977;33;33560;-87
2023/08/02 10:38:39;;;;;;;2.70;1.27;;;;;;;26.03;41.58;98461.19;4330085;33;34081;-86
2023/08/02 10:41:09;;;;;;;4.80;1.25;;;;;;;26.62;39.51;98461.91;4328598;33;35070;-87
2023/08/02 10:43:52;;;;;;;3.20;1.30;;;;;;;27.00;37.44;98461.22;4331676;33;34061;-86
2023/08/02 10:46:32;;;;;;;3.95;1.23;;;;;;;26.94;39.98;98456.34;4331510;33;33368;-87
2023/08/02 10:49:08;;;;;;;4.07;1.20;;;;;;;27.16;38.67;98463.75;4330387;33;34130;-87
2023/08/02 10:51:37;;;;;;;3.25;1.20;;;;;;;27.25;38.90;98454.34;4335368;33;34748;-87
2023/08/02 10:54:22;;;;;;;3.17;1.17;;;;;;;27.01;37.80;98457.66;4333280;33;33192;-89
2023/08/02 10:56:53;;;;;;;2.47;1.00;;;;;;;26.94;37.87;98445.69;4320952;33;33522;-88
2023/08/02 10:59:23;;;;;;;3.67;1.20;;;;;;;26.92;36.52;98443.12;4331225;33;34163;-91
2023/08/02 11:02:11;;;;;;;2.95;1.20;;;;;;;26.81;37.13;98442.12;4320116;33;34050;-91
2023/08/02 11:04:45;;;;;;;3.40;1.10;;;;;;;26.66;36.62;98442.16;4318085;33;33380;-84
2023/08/02 11:07:21;;;;;;;2.78;1.23;;;;;;;27.04;37.08;98446.78;4311399;33;33087;-88
2023/08/02 11:09:53;;;;;;;3.67;1.12;;;;;;;27.19;37.69;98428.12;4317303;33;33839;-91
2023/08/02 11:12:21;;;;;;;2.45;1.00;;;;;;;27.32;35.54;98424.56;4315587;33;34208;-90
2023/08/02 11:14:51;;;;;;;2.80;0.90;;;;;;;26.90;35.69;98431.75;4306022;33;33980;-86
2023/08/02 11:17:20;;;;;;;2.80;1.20;;;;;;;26.60;35.24;98436.41;4316561;33;33726;-85
2023/08/02 11:19:53;;;;;;;2.78;0.93;;;;;;;26.74;36.07;98427.50;4317066;33;34869;-94
2023/08/02 11:22:23;;;;;;;4.22;1.05;;;;;;;26.74;37.03;98422.19;4326149;33;33709;-92
2023/08/02 11:24:53;;;;;;;3.70;0.80;;;;;;;26.67;35.81;98416.44;4331910;33;33295;-87
2023/08/02 11:27:23;;;;;;;3.15;1.10;;;;;;;26.61;36.12;98406.19;4303333;33;33132;-87
2023/08/02 11:30:04;;;;;;;4.12;1.45;;;;;;;27.05;36.33;98391.75;4291833;33;33148;-93
2023/08/02 11:32:32;;;;;;;3.22;1.10;;;;;;;27.22;35.23;98391.53;4322839;33;34316;-91
2023/08/02 11:35:00;;;;;;;3.97;0.98;;;;;;;27.27;35.63;98399.19;4317950;33;32965;-92
2023/08/02 11:37:28;;;;;;;4.95;1.20;;;;;;;27.48;31.86;98386.22;4318411;33;33546;-90
2023/08/02 11:39:57;;;;;;;2.03;0.95;;;;;;;26.43;32.72;98394.91;4330944;33;34069;-90
2023/08/02 11:42:28;;;;;;;2.87;0.93;;;;;;;26.55;32.94;98391.47;4317460;33;32886;-88